Perris, California
Current Conditions -  °F | °C
As of 11:58 PM on Wednesday 26 Nov 2014 (Local Time) from KRIV Reporting Station
Clear Clear  
Wind Chill: 51°   Ceiling: Unl
Heat Index: 51°   Visibility: 10mi
Dew Point: 19°   Wind: 0mph
Humidity: 28%   Direction: NA
Pressure: 30.18"   Gusts: NA
Location:  33.78°N, 117.22°W
Report Text: KRIV 270758Z AUTO 00000KT 10SM CLR 11/M07 A3018 RMK AO2 SLP211 T01081073 402960034
Loading
Personal Weather Stations






























Interactive Weather Map New forecast layout! Learn more

10-Day Weather Forecast

Advertisements
Track Severe Weather on mobile